createdAt,value
2023-05-12T00:00:00.000Z,14.13
2023-05-12T00:15:00.000Z,13.62
2023-05-12T00:30:00.000Z,14.79
2023-05-12T00:45:00.000Z,19.69
2023-05-12T01:00:00.000Z,16.31
2023-05-12T01:15:00.000Z,18.37
2023-05-12T01:30:00.000Z,20.04
2023-05-12T01:45:00.000Z,20.8
2023-05-12T02:00:00.000Z,23.56
2023-05-12T02:15:00.000Z,26.29
2023-05-12T02:30:00.000Z,26.73
2023-05-12T02:45:00.000Z,24.55
2023-05-12T03:00:00.000Z,22.91
2023-05-12T03:15:00.000Z,23.21
2023-05-12T03:30:00.000Z,23.28
2023-05-12T03:45:00.000Z,26.82
2023-05-12T04:00:00.000Z,28.76
2023-05-12T04:15:00.000Z,31.33
2023-05-12T04:30:00.000Z,33.2
2023-05-12T04:45:00.000Z,31.02
2023-05-12T05:00:00.000Z,18.4
2023-05-12T05:15:00.000Z,12.46
2023-05-12T05:30:00.000Z,23.38
2023-05-12T05:45:00.000Z,17.34
2023-05-12T06:00:00.000Z,19.31
2023-05-12T06:15:00.000Z,20.01
2023-05-12T06:30:00.000Z,23.71
2023-05-12T06:45:00.000Z,28.14
2023-05-12T07:00:00.000Z,26.34
2023-05-12T07:15:00.000Z,22.53
2023-05-12T07:30:00.000Z,20.99
2023-05-12T07:45:00.000Z,20.55
2023-05-12T08:00:00.000Z,16.19
2023-05-12T08:15:00.000Z,15.04
2023-05-12T08:30:00.000Z,15.38
2023-05-12T08:45:00.000Z,14.24
2023-05-12T09:00:00.000Z,15.09
2023-05-12T09:15:00.000Z,14.15
2023-05-12T09:30:00.000Z,14.27
2023-05-12T09:45:00.000Z,14.41
2023-05-12T10:00:00.000Z,12.91
2023-05-12T10:15:00.000Z,11.89
2023-05-12T10:30:00.000Z,10.13
2023-05-12T10:45:00.000Z,10.15
2023-05-12T11:00:00.000Z,10.6
2023-05-12T11:15:00.000Z,10.18
2023-05-12T11:30:00.000Z,9.14
2023-05-12T11:45:00.000Z,7.52
2023-05-12T12:00:00.000Z,7.98
2023-05-12T12:15:00.000Z,10.99
2023-05-12T12:30:00.000Z,11.47
2023-05-12T12:45:00.000Z,13.32
2023-05-12T13:00:00.000Z,16.14
2023-05-12T13:15:00.000Z,18.87
2023-05-12T13:30:00.000Z,18.55
2023-05-12T13:45:00.000Z,15.72
2023-05-12T14:00:00.000Z,14.22
2023-05-12T14:15:00.000Z,16.44
2023-05-12T14:30:00.000Z,15.31
2023-05-12T14:45:00.000Z,14.89
2023-05-12T15:00:00.000Z,12.75
2023-05-12T15:15:00.000Z,9.51
2023-05-12T15:30:00.000Z,11.27
2023-05-12T15:45:00.000Z,10.29
2023-05-12T16:00:00.000Z,10.11
2023-05-12T16:15:00.000Z,11.79
2023-05-12T16:30:00.000Z,11.62
2023-05-12T16:45:00.000Z,14.53
2023-05-12T17:00:00.000Z,15.47
2023-05-12T17:15:00.000Z,15.19
2023-05-12T17:30:00.000Z,16.09
2023-05-12T17:45:00.000Z,15.43
2023-05-12T18:00:00.000Z,17.95
2023-05-12T18:15:00.000Z,20.59
2023-05-12T18:30:00.000Z,18.81
2023-05-12T18:45:00.000Z,16.67
2023-05-12T19:00:00.000Z,19.52
2023-05-12T19:15:00.000Z,19.49
2023-05-12T19:30:00.000Z,20.69
2023-05-12T19:45:00.000Z,20.55
2023-05-12T20:00:00.000Z,20.91
2023-05-12T20:15:00.000Z,18.49
2023-05-12T20:30:00.000Z,17.25
2023-05-12T20:45:00.000Z,19.4
2023-05-12T21:00:00.000Z,22.84
2023-05-12T21:15:00.000Z,21.61
2023-05-12T21:30:00.000Z,21.04
2023-05-12T21:45:00.000Z,19.95
2023-05-12T22:00:00.000Z,19.67
2023-05-12T22:15:00.000Z,18.87
2023-05-12T22:30:00.000Z,20.21
2023-05-12T22:45:00.000Z,20.36
2023-05-12T23:00:00.000Z,20.52
2023-05-12T23:15:00.000Z,21.18
2023-05-12T23:30:00.000Z,21.65
2023-05-12T23:45:00.000Z,22.52
